sensor_id;sensor_type;location;lat;lon;timestamp;pressure;altitude;pressure_sealevel;temperature;humidity
25420;BME280;13354;48.174;11.566;2023-04-22T00:00:58;95175.25;;;12.35;65.86
25420;BME280;13354;48.174;11.566;2023-04-22T00:03:24;95171.78;;;12.35;66.11
25420;BME280;13354;48.174;11.566;2023-04-22T00:05:49;95175.88;;;12.37;66.53
25420;BME280;13354;48.174;11.566;2023-04-22T00:08:15;95174.19;;;12.43;66.39
25420;BME280;13354;48.174;11.566;2023-04-22T00:10:40;95179.03;;;12.52;64.89
25420;BME280;13354;48.174;11.566;2023-04-22T00:13:05;95169.41;;;12.51;65.84
25420;BME280;13354;48.174;11.566;2023-04-22T00:15:30;95167.22;;;12.48;65.79
25420;BME280;13354;48.174;11.566;2023-04-22T00:17:56;95164.72;;;12.53;65.02
25420;BME280;13354;48.174;11.566;2023-04-22T00:20:22;95173.72;;;12.52;65.37
25420;BME280;13354;48.174;11.566;2023-04-22T00:22:47;95166.94;;;12.56;64.80
25420;BME280;13354;48.174;11.566;2023-04-22T00:25:13;95165.84;;;12.39;65.56
25420;BME280;13354;48.174;11.566;2023-04-22T00:27:38;95168.78;;;12.24;66.06
25420;BME280;13354;48.174;11.566;2023-04-22T00:30:03;95164.78;;;12.15;66.15
25420;BME280;13354;48.174;11.566;2023-04-22T00:32:29;95173.22;;;12.05;66.12
25420;BME280;13354;48.174;11.566;2023-04-22T00:34:54;95170.59;;;11.99;67.20
25420;BME280;13354;48.174;11.566;2023-04-22T00:37:21;95168.16;;;11.97;67.74
25420;BME280;13354;48.174;11.566;2023-04-22T00:39:46;95172.03;;;11.95;67.58
25420;BME280;13354;48.174;11.566;2023-04-22T00:42:12;95166.97;;;11.93;67.84
25420;BME280;13354;48.174;11.566;2023-04-22T00:44:37;95170.19;;;11.95;67.23
25420;BME280;13354;48.174;11.566;2023-04-22T00:47:04;95172.69;;;11.90;67.73
25420;BME280;13354;48.174;11.566;2023-04-22T00:49:30;95165.72;;;11.89;67.17
25420;BME280;13354;48.174;11.566;2023-04-22T00:51:55;95167.59;;;11.82;67.58
25420;BME280;13354;48.174;11.566;2023-04-22T00:54:20;95160.81;;;11.93;66.91
25420;BME280;13354;48.174;11.566;2023-04-22T00:56:46;95155.34;;;11.88;67.45
25420;BME280;13354;48.174;11.566;2023-04-22T00:59:11;95158.59;;;11.83;67.42
25420;BME280;13354;48.174;11.566;2023-04-22T01:01:36;95158.03;;;11.74;67.62
25420;BME280;13354;48.174;11.566;2023-04-22T01:04:02;95160.69;;;11.74;68.07
25420;BME280;13354;48.174;11.566;2023-04-22T01:06:28;95151.75;;;11.69;68.53
25420;BME280;13354;48.174;11.566;2023-04-22T01:08:55;95152.16;;;11.66;68.17
25420;BME280;13354;48.174;11.566;2023-04-22T01:11:20;95156.66;;;11.65;68.17
25420;BME280;13354;48.174;11.566;2023-04-22T01:13:47;95164.03;;;11.56;68.85
25420;BME280;13354;48.174;11.566;2023-04-22T01:16:12;95169.78;;;11.47;68.57
25420;BME280;13354;48.174;11.566;2023-04-22T01:18:38;95169.00;;;11.40;69.35
25420;BME280;13354;48.174;11.566;2023-04-22T01:21:03;95168.59;;;11.36;69.90
25420;BME280;13354;48.174;11.566;2023-04-22T01:23:28;95163.88;;;11.45;69.46
25420;BME280;13354;48.174;11.566;2023-04-22T01:25:54;95166.09;;;11.48;69.49
25420;BME280;13354;48.174;11.566;2023-04-22T01:28:19;95159.19;;;11.47;69.77
25420;BME280;13354;48.174;11.566;2023-04-22T01:30:45;95164.31;;;11.42;70.17
25420;BME280;13354;48.174;11.566;2023-04-22T01:33:12;95161.03;;;11.40;70.28
25420;BME280;13354;48.174;11.566;2023-04-22T01:35:39;95168.16;;;11.46;70.08
25420;BME280;13354;48.174;11.566;2023-04-22T01:38:05;95164.91;;;11.37;70.71
25420;BME280;13354;48.174;11.566;2023-04-22T01:40:31;95175.13;;;11.33;70.45
25420;BME280;13354;48.174;11.566;2023-04-22T01:43:00;95174.72;;;11.36;70.67
25420;BME280;13354;48.174;11.566;2023-04-22T01:45:26;95169.22;;;11.31;71.20
25420;BME280;13354;48.174;11.566;2023-04-22T01:47:51;95172.28;;;11.28;71.21
25420;BME280;13354;48.174;11.566;2023-04-22T01:50:16;95177.38;;;11.30;71.48
25420;BME280;13354;48.174;11.566;2023-04-22T01:52:41;95171.25;;;11.29;71.55
25420;BME280;13354;48.174;11.566;2023-04-22T01:55:07;95169.22;;;11.31;71.91
25420;BME280;13354;48.174;11.566;2023-04-22T01:57:32;95164.34;;;11.28;71.62
25420;BME280;13354;48.174;11.566;2023-04-22T01:59:58;95169.66;;;11.22;71.89
25420;BME280;13354;48.174;11.566;2023-04-22T02:02:23;95173.53;;;11.19;71.85
25420;BME280;13354;48.174;11.566;2023-04-22T02:04:48;95175.78;;;11.16;72.03
25420;BME280;13354;48.174;11.566;2023-04-22T02:07:14;95168.69;;;11.09;72.10
25420;BME280;13354;48.174;11.566;2023-04-22T02:09:39;95165.41;;;11.07;72.75
25420;BME280;13354;48.174;11.566;2023-04-22T02:12:04;95174.16;;;11.08;72.77
25420;BME280;13354;48.174;11.566;2023-04-22T02:14:29;95172.53;;;11.07;72.93
25420;BME280;13354;48.174;11.566;2023-04-22T02:16:55;95167.88;;;11.02;72.88
25420;BME280;13354;48.174;11.566;2023-04-22T02:19:20;95168.28;;;10.99;72.89
25420;BME280;13354;48.174;11.566;2023-04-22T02:21:45;95174.78;;;10.97;73.04
25420;BME280;13354;48.174;11.566;2023-04-22T02:24:10;95170.13;;;10.92;73.46
25420;BME280;13354;48.174;11.566;2023-04-22T02:26:35;95178.06;;;10.92;73.17
25420;BME280;13354;48.174;11.566;2023-04-22T02:29:01;95171.72;;;11.20;70.65
25420;BME280;13354;48.174;11.566;2023-04-22T02:31:26;95165.78;;;11.18;70.58
25420;BME280;13354;48.174;11.566;2023-04-22T02:33:51;95172.13;;;11.10;71.32
25420;BME280;13354;48.174;11.566;2023-04-22T02:36:16;95169.88;;;11.07;71.86
25420;BME280;13354;48.174;11.566;2023-04-22T02:38:41;95173.97;;;10.96;72.10
25420;BME280;13354;48.174;11.566;2023-04-22T02:41:07;95178.47;;;10.89;73.03
25420;BME280;13354;48.174;11.566;2023-04-22T02:43:32;95171.97;;;10.85;73.21
25420;BME280;13354;48.174;11.566;2023-04-22T02:45:57;95176.44;;;10.84;72.93
25420;BME280;13354;48.174;11.566;2023-04-22T02:48:22;95170.53;;;10.82;72.89
25420;BME280;13354;48.174;11.566;2023-04-22T02:50:47;95169.75;;;10.75;73.36
25420;BME280;13354;48.174;11.566;2023-04-22T02:53:13;95174.44;;;10.73;73.16
25420;BME280;13354;48.174;11.566;2023-04-22T02:55:41;95172.81;;;10.72;72.83
25420;BME280;13354;48.174;11.566;2023-04-22T02:58:06;95171.59;;;10.68;73.09
25420;BME280;13354;48.174;11.566;2023-04-22T03:00:32;95179.31;;;10.63;73.22
25420;BME280;13354;48.174;11.566;2023-04-22T03:02:58;95161.41;;;10.58;73.94
25420;BME280;13354;48.174;11.566;2023-04-22T03:05:23;95168.72;;;10.56;73.82
25420;BME280;13354;48.174;11.566;2023-04-22T03:07:48;95158.34;;;10.48;74.17
25420;BME280;13354;48.174;11.566;2023-04-22T03:10:13;95162.22;;;10.46;74.27
25420;BME280;13354;48.174;11.566;2023-04-22T03:12:39;95161.63;;;10.50;74.09
25420;BME280;13354;48.174;11.566;2023-04-22T03:15:04;95164.06;;;10.38;74.27
25420;BME280;13354;48.174;11.566;2023-04-22T03:17:30;95155.09;;;10.39;74.31
25420;BME280;13354;48.174;11.566;2023-04-22T03:19:55;95157.72;;;10.26;74.59
25420;BME280;13354;48.174;11.566;2023-04-22T03:22:20;95156.88;;;10.19;75.12
25420;BME280;13354;48.174;11.566;2023-04-22T03:24:46;95157.09;;;10.18;75.57
25420;BME280;13354;48.174;11.566;2023-04-22T03:27:11;95155.25;;;10.18;75.03
25420;BME280;13354;48.174;11.566;2023-04-22T03:29:36;95159.75;;;10.24;74.38
25420;BME280;13354;48.174;11.566;2023-04-22T03:32:01;95154.28;;;10.26;74.22
25420;BME280;13354;48.174;11.566;2023-04-22T03:34:27;95156.53;;;10.29;74.03
25420;BME280;13354;48.174;11.566;2023-04-22T03:36:52;95152.44;;;10.26;73.79
25420;BME280;13354;48.174;11.566;2023-04-22T03:39:17;95158.94;;;10.30;73.88
25420;BME280;13354;48.174;11.566;2023-04-22T03:41:42;95154.47;;;10.24;73.96
25420;BME280;13354;48.174;11.566;2023-04-22T03:44:08;95168.09;;;10.21;73.82
25420;BME280;13354;48.174;11.566;2023-04-22T03:46:33;95165.84;;;10.25;74.42
25420;BME280;13354;48.174;11.566;2023-04-22T03:48:58;95165.84;;;10.18;74.78
25420;BME280;13354;48.174;11.566;2023-04-22T03:51:23;95166.66;;;10.19;74.65
25420;BME280;13354;48.174;11.566;2023-04-22T03:53:48;95169.91;;;10.21;74.25
25420;BME280;13354;48.174;11.566;2023-04-22T03:56:14;95165.63;;;10.20;74.17
25420;BME280;13354;48.174;11.566;2023-04-22T03:58:39;95162.78;;;10.21;74.12
25420;BME280;13354;48.174;11.566;2023-04-22T04:01:04;95167.84;;;10.16;74.28
25420;BME280;13354;48.174;11.566;2023-04-22T04:03:30;95168.47;;;10.18;74.01
25420;BME280;13354;48.174;11.566;2023-04-22T04:05:55;95166.66;;;10.05;74.29
25420;BME280;13354;48.174;11.566;2023-04-22T04:08:20;95170.69;;;10.01;74.46
25420;BME280;13354;48.174;11.566;2023-04-22T04:10:46;95170.09;;;9.99;74.59
25420;BME280;13354;48.174;11.566;2023-04-22T04:13:11;95165.97;;;9.90;74.97
25420;BME280;13354;48.174;11.566;2023-04-22T04:15:36;95161.13;;;9.87;75.31
25420;BME280;13354;48.174;11.566;2023-04-22T04:18:01;95172.28;;;9.89;75.01
25420;BME280;13354;48.174;11.566;2023-04-22T04:20:28;95173.09;;;9.89;75.17
25420;BME280;13354;48.174;11.566;2023-04-22T04:22:53;95168.22;;;9.86;75.53
25420;BME280;13354;48.174;11.566;2023-04-22T04:25:18;95170.66;;;9.88;75.27
25420;BME280;13354;48.174;11.566;2023-04-22T04:27:45;95161.13;;;9.87;75.34
25420;BME280;13354;48.174;11.566;2023-04-22T04:30:10;95165.78;;;9.91;75.43
25420;BME280;13354;48.174;11.566;2023-04-22T04:32:36;95170.28;;;9.91;75.25
25420;BME280;13354;48.174;11.566;2023-04-22T04:35:01;95163.75;;;9.87;75.30
25420;BME280;13354;48.174;11.566;2023-04-22T04:37:27;95158.06;;;9.83;75.82
25420;BME280;13354;48.174;11.566;2023-04-22T04:39:52;95157.22;;;9.83;75.94
25420;BME280;13354;48.174;11.566;2023-04-22T04:42:17;95164.16;;;9.84;76.35
25420;BME280;13354;48.174;11.566;2023-04-22T04:44:43;95155.19;;;9.85;76.22
25420;BME280;13354;48.174;11.566;2023-04-22T04:47:09;95161.72;;;9.89;75.85
25420;BME280;13354;48.174;11.566;2023-04-22T04:49:34;95162.75;;;9.95;76.07
25420;BME280;13354;48.174;11.566;2023-04-22T04:52:03;95171.09;;;9.98;76.19
25420;BME280;13354;48.174;11.566;2023-04-22T04:54:29;95173.34;;;9.95;76.05
25420;BME280;13354;48.174;11.566;2023-04-22T04:56:54;95179.22;;;9.97;76.17
25420;BME280;13354;48.174;11.566;2023-04-22T04:59:21;95176.59;;;10.03;75.92
25420;BME280;13354;48.174;11.566;2023-04-22T05:01:46;95179.47;;;10.15;75.37
25420;BME280;13354;48.174;11.566;2023-04-22T05:04:11;95176.63;;;10.23;74.41
25420;BME280;13354;48.174;11.566;2023-04-22T05:06:37;95175.81;;;10.23;74.76
25420;BME280;13354;48.174;11.566;2023-04-22T05:09:02;95165.84;;;10.18;75.28
25420;BME280;13354;48.174;11.566;2023-04-22T05:11:27;95171.31;;;10.23;75.72
25420;BME280;13354;48.174;11.566;2023-04-22T05:13:52;95177.63;;;10.22;75.53
25420;BME280;13354;48.174;11.566;2023-04-22T05:16:17;95167.09;;;10.29;75.06
25420;BME280;13354;48.174;11.566;2023-04-22T05:18:43;95170.97;;;10.46;74.48
25420;BME280;13354;48.174;11.566;2023-04-22T05:21:08;95169.56;;;10.50;74.43
25420;BME280;13354;48.174;11.566;2023-04-22T05:23:33;95172.63;;;10.54;73.60
25420;BME280;13354;48.174;11.566;2023-04-22T05:25:59;95171.78;;;10.60;74.16
25420;BME280;13354;48.174;11.566;2023-04-22T05:28:24;95167.09;;;10.62;73.88
25420;BME280;13354;48.174;11.566;2023-04-22T05:30:49;95167.09;;;10.69;74.23
25420;BME280;13354;48.174;11.566;2023-04-22T05:33:15;95171.38;;;10.76;72.87
25420;BME280;13354;48.174;11.566;2023-04-22T05:35:40;95167.06;;;10.82;72.78
25420;BME280;13354;48.174;11.566;2023-04-22T05:38:05;95173.78;;;10.98;72.88
25420;BME280;13354;48.174;11.566;2023-04-22T05:40:31;95167.28;;;10.94;73.28
25420;BME280;13354;48.174;11.566;2023-04-22T05:42:56;95174.16;;;11.08;73.32
25420;BME280;13354;48.174;11.566;2023-04-22T05:45:21;95175.78;;;11.16;70.65
25420;BME280;13354;48.174;11.566;2023-04-22T05:47:46;95185.13;;;11.31;67.87
25420;BME280;13354;48.174;11.566;2023-04-22T05:50:12;95176.72;;;11.41;67.14
25420;BME280;13354;48.174;11.566;2023-04-22T05:52:37;95184.84;;;11.53;66.99
25420;BME280;13354;48.174;11.566;2023-04-22T05:55:03;95185.06;;;11.51;67.71
25420;BME280;13354;48.174;11.566;2023-04-22T05:57:28;95189.50;;;11.64;66.79
25420;BME280;13354;48.174;11.566;2023-04-22T05:59:53;95195.16;;;11.74;64.56
25420;BME280;13354;48.174;11.566;2023-04-22T06:02:19;95203.88;;;11.81;64.62
25420;BME280;13354;48.174;11.566;2023-04-22T06:04:44;95204.00;;;12.06;62.56
25420;BME280;13354;48.174;11.566;2023-04-22T06:07:09;95204.81;;;12.07;62.61
25420;BME280;13354;48.174;11.566;2023-04-22T06:09:35;95210.50;;;12.11;63.06
25420;BME280;13354;48.174;11.566;2023-04-22T06:12:00;95210.88;;;12.21;63.16
25420;BME280;13354;48.174;11.566;2023-04-22T06:14:26;95206.19;;;12.48;62.31
25420;BME280;13354;48.174;11.566;2023-04-22T06:16:51;95209.25;;;12.76;58.99
25420;BME280;13354;48.174;11.566;2023-04-22T06:19:17;95208.47;;;13.19;57.27
25420;BME280;13354;48.174;11.566;2023-04-22T06:21:42;95208.34;;;13.88;54.30
25420;BME280;13354;48.174;11.566;2023-04-22T06:24:08;95210.41;;;14.76;51.57
25420;BME280;13354;48.174;11.566;2023-04-22T06:26:34;95209.28;;;15.66;48.63
25420;BME280;13354;48.174;11.566;2023-04-22T06:29:00;95201.53;;;16.79;46.24
25420;BME280;13354;48.174;11.566;2023-04-22T06:31:26;95197.56;;;17.93;43.53
25420;BME280;13354;48.174;11.566;2023-04-22T06:33:52;95199.59;;;18.78;40.91
25420;BME280;13354;48.174;11.566;2023-04-22T06:36:17;95192.44;;;19.69;41.44
25420;BME280;13354;48.174;11.566;2023-04-22T06:38:42;95201.88;;;20.44;40.71
25420;BME280;13354;48.174;11.566;2023-04-22T06:41:07;95205.16;;;20.57;38.17
25420;BME280;13354;48.174;11.566;2023-04-22T06:43:32;95197.22;;;22.03;35.86
25420;BME280;13354;48.174;11.566;2023-04-22T06:45:58;95207.16;;;22.73;33.91
25420;BME280;13354;48.174;11.566;2023-04-22T06:48:23;95203.75;;;23.89;32.03
25420;BME280;13354;48.174;11.566;2023-04-22T06:50:48;95194.00;;;25.30;30.25
25420;BME280;13354;48.174;11.566;2023-04-22T06:53:13;95204.34;;;24.52;31.40
25420;BME280;13354;48.174;11.566;2023-04-22T06:55:39;95195.69;;;25.07;30.18
25420;BME280;13354;48.174;11.566;2023-04-22T06:58:04;95194.63;;;26.15;28.89
25420;BME280;13354;48.174;11.566;2023-04-22T07:00:29;95200.72;;;26.34;27.96
25420;BME280;13354;48.174;11.566;2023-04-22T07:02:55;95199.94;;;25.13;29.40
25420;BME280;13354;48.174;11.566;2023-04-22T07:05:20;95195.84;;;25.48;29.12
25420;BME280;13354;48.174;11.566;2023-04-22T07:07:45;95196.63;;;26.87;27.71
25420;BME280;13354;48.174;11.566;2023-04-22T07:10:11;95195.84;;;27.31;27.13
25420;BME280;13354;48.174;11.566;2023-04-22T07:12:38;95193.66;;;26.61;26.84
25420;BME280;13354;48.174;11.566;2023-04-22T07:15:03;95188.81;;;27.61;26.66
25420;BME280;13354;48.174;11.566;2023-04-22T07:17:29;95188.94;;;28.10;26.36
25420;BME280;13354;48.174;11.566;2023-04-22T07:19:54;95181.38;;;28.81;25.70
25420;BME280;13354;48.174;11.566;2023-04-22T07:22:19;95178.81;;;28.50;25.47
25420;BME280;13354;48.174;11.566;2023-04-22T07:24:45;95186.88;;;29.07;24.73
25420;BME280;13354;48.174;11.566;2023-04-22T07:27:10;95183.25;;;27.98;25.54
25420;BME280;13354;48.174;11.566;2023-04-22T07:29:35;95181.06;;;27.46;25.42
25420;BME280;13354;48.174;11.566;2023-04-22T07:32:01;95190.63;;;25.66;27.37
25420;BME280;13354;48.174;11.566;2023-04-22T07:34:26;95179.06;;;25.46;28.12
25420;BME280;13354;48.174;11.566;2023-04-22T07:36:51;95188.56;;;23.93;30.00
25420;BME280;13354;48.174;11.566;2023-04-22T07:39:17;95180.22;;;23.36;31.60
25420;BME280;13354;48.174;11.566;2023-04-22T07:41:42;95180.19;;;22.67;33.01
25420;BME280;13354;48.174;11.566;2023-04-22T07:44:08;95180.75;;;22.05;33.44
25420;BME280;13354;48.174;11.566;2023-04-22T07:46:34;95189.28;;;21.32;35.49
25420;BME280;13354;48.174;11.566;2023-04-22T07:48:59;95188.16;;;20.41;36.84
25420;BME280;13354;48.174;11.566;2023-04-22T07:51:25;95197.13;;;19.99;38.29
25420;BME280;13354;48.174;11.566;2023-04-22T07:53:50;95196.09;;;20.05;38.78
25420;BME280;13354;48.174;11.566;2023-04-22T07:56:15;95183.34;;;20.48;38.17
25420;BME280;13354;48.174;11.566;2023-04-22T07:58:40;95185.81;;;20.85;38.09
25420;BME280;13354;48.174;11.566;2023-04-22T08:01:05;95183.91;;;21.27;37.36
25420;BME280;13354;48.174;11.566;2023-04-22T08:03:31;95186.00;;;21.81;36.91
25420;BME280;13354;48.174;11.566;2023-04-22T08:05:56;95179.78;;;22.50;35.83
25420;BME280;13354;48.174;11.566;2023-04-22T08:08:22;95177.38;;;22.43;36.03
25420;BME280;13354;48.174;11.566;2023-04-22T08:10:47;95178.56;;;22.66;34.50
25420;BME280;13354;48.174;11.566;2023-04-22T08:13:12;95183.91;;;22.77;34.71
25420;BME280;13354;48.174;11.566;2023-04-22T08:15:38;95191.91;;;22.48;34.99
25420;BME280;13354;48.174;11.566;2023-04-22T08:18:03;95186.88;;;22.36;35.10
25420;BME280;13354;48.174;11.566;2023-04-22T08:20:29;95181.97;;;22.38;34.85
25420;BME280;13354;48.174;11.566;2023-04-22T08:22:54;95184.25;;;22.65;35.29
25420;BME280;13354;48.174;11.566;2023-04-22T08:25:24;95182.34;;;23.10;34.63
25420;BME280;13354;48.174;11.566;2023-04-22T08:27:49;95184.78;;;22.67;34.98
25420;BME280;13354;48.174;11.566;2023-04-22T08:30:15;95181.88;;;22.53;35.16
25420;BME280;13354;48.174;11.566;2023-04-22T08:32:40;95179.91;;;22.69;35.43
25420;BME280;13354;48.174;11.566;2023-04-22T08:35:05;95181.22;;;22.27;34.66
25420;BME280;13354;48.174;11.566;2023-04-22T08:37:31;95191.06;;;21.92;35.23
25420;BME280;13354;48.174;11.566;2023-04-22T08:39:56;95189.09;;;22.13;34.98
25420;BME280;13354;48.174;11.566;2023-04-22T08:42:21;95186.16;;;22.10;35.57
25420;BME280;13354;48.174;11.566;2023-04-22T08:44:47;95180.44;;;22.27;35.98
25420;BME280;13354;48.174;11.566;2023-04-22T08:47:13;95185.56;;;22.28;36.38
25420;BME280;13354;48.174;11.566;2023-04-22T08:49:39;95191.41;;;22.40;36.75
25420;BME280;13354;48.174;11.566;2023-04-22T08:52:04;95187.56;;;22.52;38.31
25420;BME280;13354;48.174;11.566;2023-04-22T08:54:29;95185.59;;;22.18;36.18
25420;BME280;13354;48.174;11.566;2023-04-22T08:56:56;95187.56;;;21.87;39.43
25420;BME280;13354;48.174;11.566;2023-04-22T08:59:22;95187.78;;;22.06;36.91
25420;BME280;13354;48.174;11.566;2023-04-22T09:01:48;95184.88;;;21.87;35.20
25420;BME280;13354;48.174;11.566;2023-04-22T09:04:16;95184.16;;;21.61;34.91
25420;BME280;13354;48.174;11.566;2023-04-22T09:06:42;95182.78;;;21.68;35.50
25420;BME280;13354;48.174;11.566;2023-04-22T09:09:08;95177.94;;;21.70;36.48
25420;BME280;13354;48.174;11.566;2023-04-22T09:11:33;95174.88;;;21.98;34.81
25420;BME280;13354;48.174;11.566;2023-04-22T09:13:59;95172.84;;;22.34;35.27
25420;BME280;13354;48.174;11.566;2023-04-22T09:16:25;95177.44;;;22.33;35.01
25420;BME280;13354;48.174;11.566;2023-04-22T09:18:50;95170.53;;;22.56;35.91
25420;BME280;13354;48.174;11.566;2023-04-22T09:21:15;95167.44;;;22.78;35.54
25420;BME280;13354;48.174;11.566;2023-04-22T09:23:48;95163.13;;;22.77;34.25
25420;BME280;13354;48.174;11.566;2023-04-22T09:26:13;95157.47;;;22.74;34.07
25420;BME280;13354;48.174;11.566;2023-04-22T09:28:47;95167.34;;;22.88;34.23
25420;BME280;13354;48.174;11.566;2023-04-22T09:31:12;95166.88;;;22.81;33.56
25420;BME280;13354;48.174;11.566;2023-04-22T09:33:38;95162.34;;;22.72;33.95
25420;BME280;13354;48.174;11.566;2023-04-22T09:36:07;95161.06;;;23.03;34.43
25420;BME280;13354;48.174;11.566;2023-04-22T09:38:32;95170.50;;;23.01;33.42
25420;BME280;13354;48.174;11.566;2023-04-22T09:40:58;95166.91;;;22.76;33.67
25420;BME280;13354;48.174;11.566;2023-04-22T09:43:23;95160.34;;;22.93;34.34
25420;BME280;13354;48.174;11.566;2023-04-22T09:45:48;95158.38;;;23.32;33.29
25420;BME280;13354;48.174;11.566;2023-04-22T09:48:14;95159.69;;;23.35;32.87
25420;BME280;13354;48.174;11.566;2023-04-22T09:50:45;95150.47;;;23.65;34.05
25420;BME280;13354;48.174;11.566;2023-04-22T09:53:12;95153.94;;;23.71;33.25
25420;BME280;13354;48.174;11.566;2023-04-22T09:55:39;95149.69;;;23.89;33.63
25420;BME280;13354;48.174;11.566;2023-04-22T09:58:06;95145.50;;;23.77;33.71
25420;BME280;13354;48.174;11.566;2023-04-22T10:00:33;95139.63;;;23.94;34.00
25420;BME280;13354;48.174;11.566;2023-04-22T10:02:58;95141.69;;;24.02;33.23
25420;BME280;13354;48.174;11.566;2023-04-22T10:05:24;95151.66;;;23.83;32.80
25420;BME280;13354;48.174;11.566;2023-04-22T10:07:51;95138.41;;;24.05;32.92
25420;BME280;13354;48.174;11.566;2023-04-22T10:10:16;95130.38;;;24.19;32.19
25420;BME280;13354;48.174;11.566;2023-04-22T10:12:42;95132.00;;;23.96;32.10
25420;BME280;13354;48.174;11.566;2023-04-22T10:15:07;95142.63;;;23.63;32.91
25420;BME280;13354;48.174;11.566;2023-04-22T10:17:34;95139.03;;;23.49;32.38
25420;BME280;13354;48.174;11.566;2023-04-22T10:20:01;95131.66;;;23.31;33.82
25420;BME280;13354;48.174;11.566;2023-04-22T10:22:29;95129.47;;;23.33;34.48
25420;BME280;13354;48.174;11.566;2023-04-22T10:24:54;95129.84;;;23.21;33.09
25420;BME280;13354;48.174;11.566;2023-04-22T10:27:21;95124.66;;;23.54;33.34
25420;BME280;13354;48.174;11.566;2023-04-22T10:29:47;95128.88;;;23.60;32.56
25420;BME280;13354;48.174;11.566;2023-04-22T10:34:47;95122.75;;;24.02;32.01
25420;BME280;13354;48.174;11.566;2023-04-22T10:37:13;95120.16;;;24.54;32.36
25420;BME280;13354;48.174;11.566;2023-04-22T10:39:41;95119.13;;;24.69;31.57
25420;BME280;13354;48.174;11.566;2023-04-22T10:42:09;95116.69;;;24.86;31.66
25420;BME280;13354;48.174;11.566;2023-04-22T10:44:48;95111.78;;;25.21;31.59
25420;BME280;13354;48.174;11.566;2023-04-22T10:50:15;95113.19;;;25.18;29.63
25420;BME280;13354;48.174;11.566;2023-04-22T10:52:41;95109.38;;;25.19;31.09
25420;BME280;13354;48.174;11.566;2023-04-22T10:55:06;95107.84;;;25.13;31.75
25420;BME280;13354;48.174;11.566;2023-04-22T10:57:35;95101.38;;;25.42;29.66
25420;BME280;13354;48.174;11.566;2023-04-22T11:02:43;95101.25;;;25.33;29.45
25420;BME280;13354;48.174;11.566;2023-04-22T11:05:18;95095.16;;;25.27;29.78
25420;BME280;13354;48.174;11.566;2023-04-22T11:07:43;95093.75;;;25.71;29.62
25420;BME280;13354;48.174;11.566;2023-04-22T11:10:09;95096.66;;;26.16;29.69
25420;BME280;13354;48.174;11.566;2023-04-22T11:17:33;95093.34;;;26.56;27.70
25420;BME280;13354;48.174;11.566;2023-04-22T11:19:59;95088.06;;;27.18;27.49
25420;BME280;13354;48.174;11.566;2023-04-22T11:22:24;95083.81;;;27.43;27.65
25420;BME280;13354;48.174;11.566;2023-04-22T11:24:56;95085.81;;;27.20;26.90
25420;BME280;13354;48.174;11.566;2023-04-22T11:27:21;95074.44;;;27.89;27.58
25420;BME280;13354;48.174;11.566;2023-04-22T11:30:04;95074.44;;;27.98;27.38
25420;BME280;13354;48.174;11.566;2023-04-22T11:32:30;95080.78;;;28.50;26.39
25420;BME280;13354;48.174;11.566;2023-04-22T11:34:55;95075.69;;;29.39;26.41
25420;BME280;13354;48.174;11.566;2023-04-22T11:37:20;95076.34;;;29.74;25.78
25420;BME280;13354;48.174;11.566;2023-04-22T11:39:46;95072.66;;;30.08;25.23
25420;BME280;13354;48.174;11.566;2023-04-22T11:42:12;95075.00;;;30.19;24.06
25420;BME280;13354;48.174;11.566;2023-04-22T11:44:37;95079.81;;;30.43;24.56
25420;BME280;13354;48.174;11.566;2023-04-22T11:47:02;95077.06;;;29.54;24.53
25420;BME280;13354;48.174;11.566;2023-04-22T11:49:28;95088.41;;;29.18;24.53
25420;BME280;13354;48.174;11.566;2023-04-22T11:51:56;95085.09;;;28.60;25.49
25420;BME280;13354;48.174;11.566;2023-04-22T11:54:35;95082.53;;;28.55;25.07
25420;BME280;13354;48.174;11.566;2023-04-22T11:57:01;95079.59;;;28.08;26.01
25420;BME280;13354;48.174;11.566;2023-04-22T11:59:27;95082.94;;;27.56;26.44
25420;BME280;13354;48.174;11.566;2023-04-22T12:01:52;95077.88;;;27.72;27.42
25420;BME280;13354;48.174;11.566;2023-04-22T12:04:20;95080.03;;;27.44;27.23
25420;BME280;13354;48.174;11.566;2023-04-22T12:06:45;95082.66;;;27.04;26.39
25420;BME280;13354;48.174;11.566;2023-04-22T12:09:11;95079.31;;;27.30;27.55
25420;BME280;13354;48.174;11.566;2023-04-22T12:11:37;95071.25;;;27.47;27.84
25420;BME280;13354;48.174;11.566;2023-04-22T12:14:05;95075.75;;;27.60;27.64
25420;BME280;13354;48.174;11.566;2023-04-22T12:16:38;95073.03;;;27.60;27.64
25420;BME280;13354;48.174;11.566;2023-04-22T12:19:03;95062.66;;;27.62;28.10
25420;BME280;13354;48.174;11.566;2023-04-22T12:21:29;95069.25;;;27.39;29.13
25420;BME280;13354;48.174;11.566;2023-04-22T12:24:01;95067.56;;;27.52;28.30
25420;BME280;13354;48.174;11.566;2023-04-22T12:26:28;95061.75;;;27.36;27.98
25420;BME280;13354;48.174;11.566;2023-04-22T12:28:54;95061.09;;;27.08;28.17
25420;BME280;13354;48.174;11.566;2023-04-22T12:31:20;95052.50;;;26.61;27.57
25420;BME280;13354;48.174;11.566;2023-04-22T12:33:45;95053.75;;;26.18;28.22
25420;BME280;13354;48.174;11.566;2023-04-22T12:36:11;95049.50;;;26.26;30.56
25420;BME280;13354;48.174;11.566;2023-04-22T12:38:36;95057.53;;;26.17;30.35
25420;BME280;13354;48.174;11.566;2023-04-22T12:41:02;95052.19;;;25.90;29.75
25420;BME280;13354;48.174;11.566;2023-04-22T12:43:28;95050.53;;;26.16;30.07
25420;BME280;13354;48.174;11.566;2023-04-22T12:45:53;95052.47;;;26.38;29.92
25420;BME280;13354;48.174;11.566;2023-04-22T12:48:19;95059.06;;;26.60;28.26
25420;BME280;13354;48.174;11.566;2023-04-22T12:50:44;95056.47;;;26.77;28.61
25420;BME280;13354;48.174;11.566;2023-04-22T12:53:10;95055.13;;;26.97;27.98
25420;BME280;13354;48.174;11.566;2023-04-22T12:55:35;95051.53;;;26.88;27.60